createdAt,value
2019-02-22T00:02:08.683Z,26.07
2019-02-22T00:04:50.693Z,23.23
2019-02-22T00:07:32.592Z,23.93
2019-02-22T00:10:13.663Z,25.50
2019-02-22T00:12:54.744Z,24.90
2019-02-22T00:15:36.427Z,21.97
2019-02-22T00:18:18.612Z,26.00
2019-02-22T00:21:01.262Z,22.27
2019-02-22T00:23:43.019Z,22.33
2019-02-22T00:26:24.146Z,26.13
2019-02-22T00:29:04.911Z,23.80
2019-02-22T00:31:45.819Z,25.33
2019-02-22T00:34:27.107Z,24.70
2019-02-22T00:37:08.205Z,26.40
2019-02-22T00:39:49.788Z,25.53
2019-02-22T00:42:32.406Z,25.53
2019-02-22T00:45:14.806Z,26.83
2019-02-22T00:47:56.141Z,22.30
2019-02-22T00:50:37.400Z,23.67
2019-02-22T00:53:19.782Z,25.97
2019-02-22T00:56:01.878Z,28.30
2019-02-22T00:58:42.490Z,25.30
2019-02-22T01:01:24.675Z,26.10
2019-02-22T01:04:05.241Z,25.40
2019-02-22T01:06:46.194Z,26.40
2019-02-22T01:09:27.011Z,25.80
2019-02-22T01:12:08.326Z,26.33
2019-02-22T01:17:33.360Z,24.57
2019-02-22T01:20:14.959Z,29.10
2019-02-22T01:22:55.487Z,25.67
2019-02-22T01:25:36.011Z,26.40
2019-02-22T01:28:17.344Z,24.00
2019-02-22T01:30:58.131Z,24.07
2019-02-22T01:33:39.232Z,22.80
2019-02-22T01:36:19.737Z,24.27
2019-02-22T01:39:00.363Z,23.27
2019-02-22T01:41:40.959Z,21.20
2019-02-22T01:44:21.456Z,22.33
2019-02-22T01:47:06.077Z,22.37
2019-02-22T01:49:48.326Z,20.43
2019-02-22T01:52:30.091Z,20.57
2019-02-22T01:55:10.544Z,19.97
2019-02-22T01:57:51.513Z,20.10
2019-02-22T02:00:31.948Z,19.37
2019-02-22T02:03:12.638Z,20.87
2019-02-22T02:05:54.332Z,21.60
2019-02-22T02:08:36.666Z,20.67
2019-02-22T02:11:17.726Z,21.47
2019-02-22T02:13:59.702Z,21.37
2019-02-22T02:16:40.597Z,23.93
2019-02-22T02:22:05.601Z,19.80
2019-02-22T02:24:46.918Z,21.17
2019-02-22T02:27:29.117Z,20.17
2019-02-22T02:30:10.495Z,20.87
2019-02-22T02:32:51.093Z,20.00
2019-02-22T02:35:33.025Z,20.83
2019-02-22T02:38:14.275Z,21.63
2019-02-22T02:41:08.085Z,24.80
2019-02-22T02:43:40.125Z,21.63
2019-02-22T02:46:20.645Z,22.13
2019-02-22T02:49:01.138Z,21.57
2019-02-22T02:51:41.890Z,21.77
2019-02-22T02:54:22.863Z,21.93
2019-02-22T02:57:03.726Z,22.03
2019-02-22T02:59:43.951Z,21.73
2019-02-22T03:02:28.323Z,23.40
2019-02-22T03:05:10.785Z,22.40
2019-02-22T03:07:51.624Z,25.43
2019-02-22T03:10:32.254Z,23.37
2019-02-22T03:13:13.025Z,25.13
2019-02-22T03:15:53.818Z,23.40
2019-02-22T03:18:34.854Z,24.47
2019-02-22T03:21:15.297Z,24.33
2019-02-22T03:23:56.733Z,28.87
2019-02-22T03:29:16.730Z,25.50
2019-02-22T03:31:58.869Z,24.73
2019-02-22T03:34:40.507Z,23.57
2019-02-22T03:37:21.243Z,22.63
2019-02-22T03:40:01.791Z,25.07
2019-02-22T03:42:42.529Z,22.87
2019-02-22T03:48:07.916Z,22.63
2019-02-22T03:50:49.551Z,22.87
2019-02-22T03:53:32.235Z,22.60
2019-02-22T03:56:13.085Z,24.30
2019-02-22T03:58:54.070Z,27.27
2019-02-22T04:01:34.934Z,25.97
2019-02-22T04:04:15.484Z,27.17
2019-02-22T04:06:56.646Z,25.37
2019-02-22T04:09:37.667Z,25.87
2019-02-22T04:12:19.616Z,25.67
2019-02-22T04:15:01.415Z,27.77
2019-02-22T04:17:42.225Z,22.50
2019-02-22T04:20:24.234Z,26.17
2019-02-22T04:23:05.846Z,27.43
2019-02-22T04:25:46.400Z,33.10
2019-02-22T04:28:26.924Z,32.97
2019-02-22T04:31:08.230Z,29.00
2019-02-22T04:33:50.898Z,30.43
2019-02-22T04:36:32.819Z,27.13
2019-02-22T04:39:14.291Z,30.47
2019-02-22T04:41:58.298Z,27.57
2019-02-22T04:44:38.617Z,25.37
2019-02-22T04:47:20.823Z,26.83
2019-02-22T04:50:03.135Z,31.53
2019-02-22T04:52:44.086Z,30.77
2019-02-22T04:55:24.966Z,30.20
2019-02-22T04:58:05.673Z,27.90
2019-02-22T05:00:46.245Z,27.50
2019-02-22T05:03:27.063Z,31.60
2019-02-22T05:06:08.978Z,26.57
2019-02-22T05:08:50.096Z,27.17
2019-02-22T05:11:31.369Z,26.57
2019-02-22T05:14:15.277Z,28.53
2019-02-22T05:16:58.013Z,31.43
2019-02-22T05:19:38.945Z,30.93
2019-02-22T05:22:19.349Z,31.17
2019-02-22T05:25:00.886Z,24.60
2019-02-22T05:27:41.408Z,26.03
2019-02-22T05:30:22.863Z,27.97
2019-02-22T05:33:03.824Z,25.10
2019-02-22T05:35:48.619Z,31.37
2019-02-22T05:38:29.593Z,25.70
2019-02-22T05:41:11.061Z,27.93
2019-02-22T05:43:51.728Z,29.10
2019-02-22T05:46:32.523Z,26.07
2019-02-22T05:49:14.059Z,33.23
2019-02-22T05:51:54.416Z,28.70
2019-02-22T05:54:35.535Z,26.30
2019-02-22T05:57:16.268Z,26.47
2019-02-22T05:59:57.077Z,27.37
2019-02-22T06:02:37.570Z,27.17
2019-02-22T06:05:18.610Z,27.87
2019-02-22T06:07:59.493Z,27.43
2019-02-22T06:10:40.534Z,26.83
2019-02-22T06:13:22.219Z,25.60
2019-02-22T06:16:03.549Z,29.10
2019-02-22T06:18:44.687Z,25.83
2019-02-22T06:24:10.173Z,25.73
2019-02-22T06:26:51.032Z,25.80
2019-02-22T06:29:31.645Z,24.27
2019-02-22T06:32:12.704Z,29.53
2019-02-22T06:34:53.564Z,27.57
2019-02-22T06:37:34.787Z,26.60
2019-02-22T06:40:15.316Z,27.53
2019-02-22T06:42:56.984Z,24.23
2019-02-22T06:45:38.521Z,28.60
2019-02-22T06:48:19.186Z,26.97
2019-02-22T06:50:59.964Z,26.17
2019-02-22T06:53:40.650Z,27.73
2019-02-22T06:56:24.011Z,30.70
2019-02-22T06:59:06.017Z,30.70
2019-02-22T07:01:46.452Z,52.27
2019-02-22T07:04:27.776Z,37.33
2019-02-22T07:07:08.492Z,35.23
2019-02-22T07:09:49.035Z,36.90
2019-02-22T07:12:31.638Z,32.77
2019-02-22T07:15:16.912Z,30.13
2019-02-22T07:17:57.841Z,32.00
2019-02-22T07:20:38.191Z,34.17
2019-02-22T07:23:19.061Z,31.03
2019-02-22T07:28:50.849Z,29.60
2019-02-22T07:31:31.608Z,27.13
2019-02-22T07:34:13.030Z,26.50
2019-02-22T07:36:54.091Z,25.47
2019-02-22T07:39:34.816Z,26.47
2019-02-22T07:42:15.522Z,23.90
2019-02-22T07:44:56.593Z,24.77
2019-02-22T07:47:37.508Z,26.47
2019-02-22T07:50:18.067Z,24.53
2019-02-22T07:52:59.834Z,23.37
2019-02-22T07:55:40.871Z,24.03
2019-02-22T07:58:21.661Z,22.53
2019-02-22T08:01:02.297Z,23.27
2019-02-22T08:03:43.496Z,23.20
2019-02-22T08:06:24.285Z,23.40
2019-02-22T08:09:05.646Z,23.60
2019-02-22T08:11:47.592Z,23.67
2019-02-22T08:17:14.730Z,22.97
2019-02-22T08:19:56.766Z,24.67
2019-02-22T08:22:38.208Z,27.33
2019-02-22T08:25:19.644Z,38.87
2019-02-22T08:28:00.320Z,32.03
2019-02-22T08:30:41.022Z,25.07
2019-02-22T08:33:21.956Z,25.97
2019-02-22T08:36:02.680Z,25.17
2019-02-22T08:38:44.833Z,23.27
2019-02-22T08:41:25.629Z,23.90
2019-02-22T08:44:07.445Z,25.67
2019-02-22T08:46:48.210Z,25.07
2019-02-22T08:49:28.716Z,24.97
2019-02-22T08:52:10.067Z,26.67
2019-02-22T08:54:51.108Z,23.67
2019-02-22T08:57:32.642Z,24.70
2019-02-22T09:00:15.027Z,23.87
2019-02-22T09:02:56.398Z,23.73
2019-02-22T09:08:21.943Z,23.20
2019-02-22T09:11:02.900Z,24.67
2019-02-22T09:13:44.070Z,24.47
2019-02-22T09:16:24.991Z,24.83
2019-02-22T09:19:05.806Z,24.03
2019-02-22T09:21:48.177Z,25.40
2019-02-22T09:24:29.775Z,26.23
2019-02-22T09:27:10.569Z,25.13
2019-02-22T09:29:58.751Z,26.90
2019-02-22T09:32:34.508Z,27.80
2019-02-22T09:35:15.064Z,27.80
2019-02-22T09:37:56.484Z,29.13
2019-02-22T09:40:36.990Z,28.53
2019-02-22T09:43:19.299Z,25.97
2019-02-22T09:46:00.298Z,25.97
2019-02-22T09:48:41.025Z,27.57
2019-02-22T09:51:21.650Z,28.23
2019-02-22T09:54:02.100Z,31.43
2019-02-22T09:56:42.605Z,29.30
2019-02-22T09:59:23.831Z,33.43
2019-02-22T10:02:05.493Z,31.23
2019-02-22T10:04:54.561Z,27.40
2019-02-22T10:07:30.281Z,33.10
2019-02-22T10:10:10.814Z,29.70
2019-02-22T10:12:53.522Z,31.77
2019-02-22T10:15:35.694Z,30.80
2019-02-22T10:18:16.186Z,30.73
2019-02-22T10:20:56.714Z,31.50
2019-02-22T10:23:37.632Z,33.03
2019-02-22T10:26:21.394Z,34.43
2019-02-22T10:29:01.351Z,32.37
2019-02-22T10:31:41.896Z,33.80
2019-02-22T10:34:22.766Z,33.07
2019-02-22T10:37:03.707Z,33.03
2019-02-22T10:39:45.290Z,34.17
2019-02-22T10:42:27.568Z,32.23
2019-02-22T10:45:09.363Z,36.20
2019-02-22T10:47:50.117Z,37.73
2019-02-22T10:50:32.168Z,31.67
2019-02-22T10:53:13.095Z,29.87
2019-02-22T10:55:54.188Z,33.93
2019-02-22T10:58:35.114Z,33.87
2019-02-22T11:01:15.617Z,35.67
2019-02-22T11:03:59.714Z,34.60
2019-02-22T11:09:25.283Z,33.33
2019-02-22T11:14:44.940Z,33.63
2019-02-22T11:17:25.543Z,34.67
2019-02-22T11:20:06.545Z,34.67
2019-02-22T11:22:47.464Z,32.30
2019-02-22T11:28:21.632Z,33.13
2019-02-22T11:33:49.835Z,32.27
2019-02-22T11:39:19.686Z,32.80
2019-02-22T11:42:00.495Z,36.50
2019-02-22T11:44:42.769Z,32.20
2019-02-22T11:47:23.977Z,31.73
2019-02-22T11:50:04.475Z,30.30
2019-02-22T11:52:46.103Z,30.30
2019-02-22T11:55:26.690Z,38.07
2019-02-22T11:58:07.687Z,34.90
2019-02-22T12:00:48.495Z,31.13
2019-02-22T12:03:29.379Z,33.37
2019-02-22T12:06:09.713Z,34.73
2019-02-22T12:08:51.978Z,26.13
2019-02-22T12:11:33.084Z,29.77
2019-02-22T12:14:15.004Z,26.70
2019-02-22T12:16:57.124Z,30.53
2019-02-22T12:19:38.383Z,27.10
2019-02-22T12:22:19.591Z,24.40
2019-02-22T12:25:00.204Z,21.77
2019-02-22T12:27:42.062Z,20.13
2019-02-22T12:30:22.589Z,21.07
2019-02-22T12:33:04.751Z,21.27
2019-02-22T12:35:46.071Z,19.03
2019-02-22T12:38:28.231Z,21.47
2019-02-22T12:41:09.658Z,19.97
2019-02-22T12:43:50.396Z,19.63
2019-02-22T12:46:31.117Z,18.83
2019-02-22T12:49:12.085Z,22.30
2019-02-22T12:51:53.505Z,21.67
2019-02-22T12:54:21.961Z,22.10
2019-02-22T12:57:10.003Z,18.93
2019-02-22T12:59:57.787Z,20.90
2019-02-22T13:02:46.681Z,21.37
2019-02-22T13:05:34.456Z,13.63
2019-02-22T13:08:22.236Z,12.93
2019-02-22T13:11:03.109Z,15.67
2019-02-22T13:13:43.417Z,13.83
2019-02-22T13:16:24.653Z,13.53
2019-02-22T13:19:06.040Z,14.73
2019-02-22T13:21:47.193Z,15.53
2019-02-22T13:24:29.382Z,14.80
2019-02-22T13:27:10.275Z,15.77
2019-02-22T13:29:51.859Z,14.47
2019-02-22T13:32:32.506Z,14.00
2019-02-22T13:35:14.243Z,14.27
2019-02-22T13:37:55.972Z,21.13
2019-02-22T13:40:37.800Z,14.07
2019-02-22T13:43:19.522Z,14.03
2019-02-22T13:46:00.827Z,13.57
2019-02-22T13:48:42.228Z,13.37
2019-02-22T13:51:23.004Z,13.33
2019-02-22T13:54:05.168Z,13.40
2019-02-22T13:56:45.952Z,16.10
2019-02-22T13:59:27.459Z,12.43
2019-02-22T14:02:09.396Z,9.97
2019-02-22T14:07:33.796Z,10.07
2019-02-22T14:10:15.203Z,9.27
2019-02-22T14:12:57.498Z,10.57
2019-02-22T14:15:38.603Z,9.70
2019-02-22T14:18:19.151Z,9.00
2019-02-22T14:20:59.886Z,7.27
2019-02-22T14:23:41.990Z,6.60
2019-02-22T14:26:23.191Z,9.17
2019-02-22T14:29:04.830Z,13.73
2019-02-22T14:31:47.054Z,14.27
2019-02-22T14:37:12.267Z,10.00
2019-02-22T14:40:02.556Z,8.50
2019-02-22T14:42:23.424Z,8.20
2019-02-22T14:45:11.807Z,7.07
2019-02-22T14:47:59.771Z,6.40
2019-02-22T14:50:47.811Z,6.17
2019-02-22T14:53:35.564Z,6.33
2019-02-22T14:56:23.348Z,6.53
2019-02-22T14:59:11.388Z,5.67
2019-02-22T15:01:59.405Z,6.97
2019-02-22T15:07:55.758Z,8.47
2019-02-22T15:10:43.534Z,8.97
2019-02-22T15:13:31.590Z,10.77
2019-02-22T15:16:40.659Z,16.67
2019-02-22T15:19:28.687Z,9.53
2019-02-22T15:22:16.457Z,8.30
2019-02-22T15:25:25.200Z,7.63
2019-02-22T15:28:13.353Z,7.83
2019-02-22T15:30:41.911Z,7.10
2019-02-22T15:33:29.999Z,9.20
2019-02-22T15:36:18.045Z,24.97
2019-02-22T15:39:06.055Z,14.03
2019-02-22T15:41:54.092Z,10.07
2019-02-22T15:44:42.020Z,9.83
2019-02-22T15:47:30.101Z,9.57
2019-02-22T15:53:27.132Z,11.77
2019-02-22T15:56:14.963Z,13.30
2019-02-22T15:59:03.132Z,12.77
2019-02-22T16:01:55.620Z,13.70
2019-02-22T16:07:49.509Z,14.03
2019-02-22T16:10:37.575Z,13.43
2019-02-22T16:13:18.345Z,14.00
2019-02-22T16:15:59.011Z,15.57
2019-02-22T16:18:40.260Z,15.20
2019-02-22T16:21:20.842Z,14.77
2019-02-22T16:24:01.342Z,14.27
2019-02-22T16:26:41.955Z,16.17
2019-02-22T16:29:22.678Z,16.63
2019-02-22T16:34:47.740Z,15.63
2019-02-22T16:37:28.620Z,15.20
2019-02-22T16:40:09.265Z,14.93
2019-02-22T16:42:51.521Z,15.10
2019-02-22T16:45:32.969Z,15.80
2019-02-22T16:48:13.804Z,14.47
2019-02-22T16:50:54.583Z,15.50
2019-02-22T16:53:35.782Z,14.33
2019-02-22T16:56:16.451Z,18.33
2019-02-22T16:58:57.038Z,14.67
2019-02-22T17:01:37.680Z,15.07
2019-02-22T17:04:18.875Z,14.77
2019-02-22T17:09:46.651Z,14.17
2019-02-22T17:12:28.135Z,15.37
2019-02-22T17:15:08.823Z,14.73
2019-02-22T17:17:49.519Z,16.00
2019-02-22T17:20:30.493Z,16.27
2019-02-22T17:23:11.522Z,15.23
2019-02-22T17:25:52.279Z,16.63
2019-02-22T17:28:33.863Z,16.10
2019-02-22T17:31:14.764Z,13.77
2019-02-22T17:33:55.095Z,14.50
2019-02-22T17:36:35.915Z,13.97
2019-02-22T17:39:16.501Z,17.67
2019-02-22T17:41:57.136Z,15.20
2019-02-22T17:44:37.864Z,15.20
2019-02-22T17:47:18.754Z,15.60
2019-02-22T17:50:02.370Z,13.73
2019-02-22T17:52:42.779Z,16.33
2019-02-22T17:58:07.655Z,14.57
2019-02-22T18:00:49.245Z,17.33
2019-02-22T18:03:30.385Z,14.77
2019-02-22T18:06:10.963Z,16.33
2019-02-22T18:08:52.284Z,16.17
2019-02-22T18:11:33.663Z,16.93
2019-02-22T18:14:17.554Z,17.53
2019-02-22T18:17:07.768Z,16.93
2019-02-22T18:19:41.028Z,15.37
2019-02-22T18:22:25.706Z,18.90
2019-02-22T18:25:04.555Z,15.23
2019-02-22T18:27:45.192Z,16.23
2019-02-22T18:30:26.066Z,18.63
2019-02-22T18:33:06.541Z,17.80
2019-02-22T18:35:47.218Z,18.30
2019-02-22T18:38:27.724Z,21.37
2019-02-22T18:41:08.256Z,18.93
2019-02-22T18:43:48.783Z,17.60
2019-02-22T18:46:29.881Z,17.33
2019-02-22T18:49:10.661Z,16.07
2019-02-22T18:51:51.391Z,19.77
2019-02-22T18:54:31.910Z,18.27
2019-02-22T18:57:12.647Z,17.50
2019-02-22T18:59:53.239Z,15.70
2019-02-22T19:02:34.145Z,22.33
2019-02-22T19:05:14.932Z,21.90
2019-02-22T19:07:55.476Z,28.93
2019-02-22T19:10:39.610Z,22.53
2019-02-22T19:13:21.120Z,15.50
2019-02-22T19:16:02.330Z,16.83
2019-02-22T19:18:43.635Z,13.90
2019-02-22T19:24:11.739Z,12.27
2019-02-22T19:26:52.139Z,11.90
2019-02-22T19:29:32.899Z,13.73
2019-02-22T19:32:13.421Z,13.90
2019-02-22T19:34:54.091Z,12.07
2019-02-22T19:37:34.416Z,16.77
2019-02-22T19:40:15.083Z,25.83
2019-02-22T19:42:56.198Z,21.87
2019-02-22T19:45:36.822Z,24.00
2019-02-22T19:48:17.539Z,17.20
2019-02-22T19:50:59.058Z,15.17
2019-02-22T19:53:40.204Z,13.93
2019-02-22T19:56:21.253Z,13.10
2019-02-22T19:59:02.072Z,13.37
2019-02-22T20:01:43.104Z,13.07
2019-02-22T20:04:23.941Z,13.10
2019-02-22T20:07:04.254Z,15.83
2019-02-22T20:09:45.418Z,13.97
2019-02-22T20:12:26.352Z,13.57
2019-02-22T20:15:08.110Z,13.70
2019-02-22T20:17:54.456Z,16.47
2019-02-22T20:20:35.149Z,37.40
2019-02-22T20:26:01.484Z,21.37
2019-02-22T20:28:41.773Z,14.80
2019-02-22T20:31:22.212Z,16.20
2019-02-22T20:34:02.801Z,14.43
2019-02-22T20:36:44.169Z,11.97
2019-02-22T20:39:24.891Z,11.67
2019-02-22T20:44:49.286Z,13.83
2019-02-22T20:47:29.762Z,12.53
2019-02-22T20:50:10.741Z,13.20
2019-02-22T20:52:51.024Z,12.93
2019-02-22T20:55:31.430Z,13.23
2019-02-22T20:58:12.241Z,12.67
2019-02-22T21:00:53.933Z,14.03
2019-02-22T21:03:34.437Z,17.43
2019-02-22T21:06:14.688Z,14.53
2019-02-22T21:08:56.360Z,12.90
2019-02-22T21:11:37.735Z,13.70
2019-02-22T21:14:18.030Z,13.33
2019-02-22T21:16:58.919Z,14.63
2019-02-22T21:19:39.953Z,15.70
2019-02-22T21:25:08.032Z,13.43
2019-02-22T21:30:32.808Z,13.70
2019-02-22T21:33:13.743Z,11.53
2019-02-22T21:35:54.306Z,16.07
2019-02-22T21:41:23.499Z,12.13
2019-02-22T21:44:04.133Z,14.50
2019-02-22T21:46:44.475Z,13.80
2019-02-22T21:49:25.177Z,13.93
2019-02-22T21:54:50.822Z,14.03
2019-02-22T21:57:31.097Z,12.23
2019-02-22T22:00:13.387Z,11.83
2019-02-22T22:02:54.463Z,14.87
2019-02-22T22:05:35.286Z,13.30
2019-02-22T22:11:00.431Z,11.80
2019-02-22T22:16:22.992Z,14.13
2019-02-22T22:19:03.454Z,10.47
2019-02-22T22:21:45.293Z,11.13
2019-02-22T22:24:25.577Z,13.30
2019-02-22T22:27:06.224Z,10.13
2019-02-22T22:29:47.086Z,12.00
2019-02-22T22:32:27.346Z,11.27
2019-02-22T22:35:08.091Z,10.83
2019-02-22T22:37:48.854Z,10.43
2019-02-22T22:40:29.651Z,11.47
2019-02-22T22:43:10.413Z,11.80
2019-02-22T22:45:51.022Z,12.10
2019-02-22T22:48:31.880Z,11.13
2019-02-22T22:51:12.242Z,12.73
2019-02-22T22:53:52.849Z,12.20
2019-02-22T22:56:33.818Z,12.63
2019-02-22T22:59:17.526Z,10.80
2019-02-22T23:01:56.357Z,13.20
2019-02-22T23:04:44.127Z,12.80
2019-02-22T23:07:32.630Z,13.97
2019-02-22T23:10:20.402Z,12.80
2019-02-22T23:13:08.155Z,12.63
2019-02-22T23:15:55.928Z,11.73
2019-02-22T23:18:43.937Z,11.23
2019-02-22T23:21:31.711Z,13.17
2019-02-22T23:24:19.555Z,16.07
2019-02-22T23:27:07.360Z,15.13
2019-02-22T23:29:55.139Z,12.57
2019-02-22T23:32:43.208Z,13.03
2019-02-22T23:35:31.696Z,13.40
2019-02-22T23:38:19.469Z,14.13
2019-02-22T23:41:07.233Z,13.50
2019-02-22T23:43:55.006Z,12.67
2019-02-22T23:46:42.784Z,12.03
2019-02-22T23:49:30.566Z,14.70
2019-02-22T23:52:19.117Z,14.67
2019-02-22T23:55:06.962Z,12.13
2019-02-22T23:57:54.720Z,12.63
